createdAt,value
2023-01-06T00:00:41.322Z,9.48
2023-01-06T00:05:42.967Z,9.50
2023-01-06T00:10:44.841Z,9.63
2023-01-06T00:15:46.871Z,9.64
2023-01-06T00:20:48.563Z,9.49
2023-01-06T00:25:51.188Z,9.44
2023-01-06T00:30:53.155Z,9.47
2023-01-06T00:35:59.358Z,9.48
2023-01-06T00:41:04.229Z,9.52
2023-01-06T00:46:06.064Z,9.45
2023-01-06T00:51:07.808Z,9.49
2023-01-06T00:56:09.479Z,9.47
2023-01-06T01:01:11.519Z,9.45
2023-01-06T01:06:13.466Z,9.39
2023-01-06T01:11:35.081Z,9.44
2023-01-06T01:16:36.889Z,9.31
2023-01-06T01:21:39.387Z,9.32
2023-01-06T01:26:41.683Z,9.32
2023-01-06T01:31:44.401Z,9.29
2023-01-06T01:36:47.094Z,9.19
2023-01-06T01:41:49.501Z,9.05
2023-01-06T01:46:51.295Z,8.96
2023-01-06T01:51:56.972Z,8.90
2023-01-06T01:57:05.277Z,8.87
2023-01-06T02:02:07.149Z,8.87
2023-01-06T02:07:09.184Z,8.80
2023-01-06T02:12:11.526Z,8.70
2023-01-06T02:17:47.304Z,8.75
2023-01-06T02:23:13.791Z,8.71
2023-01-06T02:28:51.842Z,8.62
2023-01-06T02:34:03.513Z,8.39
2023-01-06T02:39:30.467Z,8.33
2023-01-06T02:44:46.736Z,8.29
2023-01-06T02:50:00.546Z,8.18
2023-01-06T02:55:12.780Z,8.10
2023-01-06T03:00:21.283Z,8.05
2023-01-06T03:05:25.674Z,8.03
2023-01-06T03:10:29.831Z,8.01
2023-01-06T03:15:31.851Z,8.11
2023-01-06T03:20:34.142Z,8.12
2023-01-06T03:25:38.293Z,8.11
2023-01-06T03:31:05.767Z,8.08
2023-01-06T03:36:28.248Z,8.04
2023-01-06T03:41:58.801Z,8.03
2023-01-06T03:47:15.152Z,7.99
2023-01-06T03:52:31.095Z,7.94
2023-01-06T03:57:37.878Z,7.88
2023-01-06T04:02:43.440Z,7.82
2023-01-06T04:07:50.907Z,7.79
2023-01-06T04:12:53.970Z,7.79
2023-01-06T04:18:00.590Z,7.71
2023-01-06T04:23:05.925Z,7.67
2023-01-06T04:28:11.854Z,7.68
2023-01-06T04:33:13.661Z,7.67
2023-01-06T04:38:18.137Z,7.45
2023-01-06T04:43:19.950Z,7.46
2023-01-06T04:48:22.212Z,7.56
2023-01-06T04:53:23.888Z,7.59
2023-01-06T04:58:25.604Z,7.54
2023-01-06T05:03:27.561Z,7.62
2023-01-06T05:08:31.042Z,7.71
2023-01-06T05:13:33.310Z,7.88
2023-01-06T05:18:35.159Z,8.00
2023-01-06T05:23:37.834Z,8.15
2023-01-06T05:28:39.526Z,8.23
2023-01-06T05:33:41.583Z,8.28
2023-01-06T05:38:43.463Z,8.21
2023-01-06T05:43:45.273Z,8.20
2023-01-06T05:48:46.986Z,8.23
2023-01-06T05:53:49.134Z,8.31
2023-01-06T05:58:52.635Z,8.38
2023-01-06T06:03:54.772Z,8.47
2023-01-06T06:08:57.861Z,8.53
2023-01-06T06:13:59.614Z,8.46
2023-01-06T06:19:01.377Z,8.41
2023-01-06T06:24:03.295Z,8.42
2023-01-06T06:29:06.438Z,8.41
2023-01-06T06:34:12.447Z,8.36
2023-01-06T06:39:14.158Z,8.37
2023-01-06T06:44:15.851Z,8.34
2023-01-06T06:49:17.879Z,8.20
2023-01-06T06:54:19.549Z,8.22
2023-01-06T06:59:21.235Z,8.32
2023-01-06T07:04:22.984Z,8.22
2023-01-06T07:09:24.728Z,8.19
2023-01-06T07:14:26.506Z,8.02
2023-01-06T07:19:28.553Z,7.88
2023-01-06T07:24:30.211Z,7.73
2023-01-06T07:29:31.867Z,7.47
2023-01-06T07:34:33.600Z,7.37
2023-01-06T07:39:35.409Z,7.36
2023-01-06T07:44:37.680Z,7.39
2023-01-06T07:49:39.386Z,7.36
2023-01-06T07:54:41.126Z,7.41
2023-01-06T07:59:42.723Z,7.52
2023-01-06T08:04:44.583Z,7.61
2023-01-06T08:09:46.243Z,7.69
2023-01-06T08:14:47.985Z,7.76
2023-01-06T08:19:49.750Z,7.73
2023-01-06T08:24:51.500Z,7.72
2023-01-06T08:29:55.227Z,7.83
2023-01-06T08:34:56.802Z,7.92
2023-01-06T08:39:58.499Z,7.98
2023-01-06T08:45:00.308Z,8.09
2023-01-06T08:50:02.164Z,8.17
2023-01-06T08:55:04.247Z,8.30
2023-01-06T09:00:07.323Z,8.42
2023-01-06T09:05:09.409Z,8.55
2023-01-06T09:10:13.679Z,8.66
2023-01-06T09:15:15.900Z,8.79
2023-01-06T09:20:17.846Z,8.88
2023-01-06T09:25:21.475Z,8.98
2023-01-06T09:30:25.181Z,9.04
2023-01-06T09:35:27.078Z,9.12
2023-01-06T09:41:10.094Z,9.18
2023-01-06T09:46:14.168Z,9.25
2023-01-06T09:51:22.757Z,9.29
2023-01-06T09:56:25.635Z,9.36
2023-01-06T10:01:38.999Z,9.39
2023-01-06T10:06:40.628Z,9.43
2023-01-06T10:11:51.349Z,9.50
2023-01-06T10:17:24.232Z,9.57
2023-01-06T10:22:49.788Z,9.70
2023-01-06T10:27:59.264Z,9.80
2023-01-06T10:33:01.814Z,9.89
2023-01-06T10:38:06.888Z,10.04
2023-01-06T10:43:12.344Z,10.15
2023-01-06T10:48:20.138Z,10.21
2023-01-06T10:53:21.906Z,10.35
2023-01-06T10:58:41.851Z,10.56
2023-01-06T11:03:45.076Z,10.68
2023-01-06T11:08:47.195Z,10.77
2023-01-06T11:13:55.971Z,10.82
2023-01-06T11:19:04.204Z,10.57
2023-01-06T11:24:17.919Z,10.55
2023-01-06T11:29:26.502Z,10.61
2023-01-06T11:34:31.270Z,10.65
2023-01-06T11:39:35.885Z,10.62
2023-01-06T11:44:40.291Z,10.77
2023-01-06T11:49:54.426Z,10.91
2023-01-06T11:54:57.541Z,10.94
2023-01-06T12:00:33.207Z,10.82
2023-01-06T12:05:43.092Z,10.71
2023-01-06T12:10:48.323Z,10.64
2023-01-06T12:16:00.103Z,10.71
2023-01-06T12:21:04.888Z,10.77
2023-01-06T12:26:16.284Z,10.83
2023-01-06T12:31:35.216Z,10.78
2023-01-06T12:36:47.921Z,10.66
2023-01-06T12:41:57.681Z,10.55
2023-01-06T12:47:06.367Z,10.51
2023-01-06T12:52:15.332Z,10.54
2023-01-06T12:57:16.983Z,10.53
2023-01-06T13:02:25.260Z,10.53
2023-01-06T13:07:42.439Z,10.52
2023-01-06T13:12:44.069Z,10.55
2023-01-06T13:18:05.760Z,10.56
2023-01-06T13:23:16.513Z,10.46
2023-01-06T13:28:40.963Z,10.50
2023-01-06T13:34:01.160Z,10.54
2023-01-06T13:39:23.228Z,10.66
2023-01-06T13:44:29.296Z,10.61
2023-01-06T13:49:31.953Z,10.57
2023-01-06T13:54:39.790Z,10.52
2023-01-06T13:59:52.576Z,10.51
2023-01-06T14:04:54.279Z,10.47
2023-01-06T14:09:56.031Z,10.46
2023-01-06T14:15:01.564Z,10.45
2023-01-06T14:20:04.043Z,10.37
2023-01-06T14:25:08.827Z,10.34
2023-01-06T14:30:21.024Z,10.38
2023-01-06T14:35:29.419Z,10.47
2023-01-06T14:40:39.668Z,10.55
2023-01-06T14:45:42.977Z,10.55
2023-01-06T14:50:51.970Z,10.55
2023-01-06T14:55:55.203Z,10.56
2023-01-06T15:00:57.898Z,10.61
2023-01-06T15:06:29.123Z,10.61
2023-01-06T15:11:33.395Z,10.54
2023-01-06T15:16:38.794Z,10.55
2023-01-06T15:21:42.850Z,10.58
2023-01-06T15:26:44.561Z,10.50
2023-01-06T15:31:48.088Z,10.50
2023-01-06T15:36:53.373Z,10.51
2023-01-06T15:41:56.822Z,10.59
2023-01-06T15:47:06.484Z,10.68
2023-01-06T15:52:24.447Z,10.73
2023-01-06T15:57:30.388Z,10.75
2023-01-06T16:02:33.498Z,10.71
2023-01-06T16:07:39.050Z,10.62
2023-01-06T16:12:40.801Z,10.52
2023-01-06T16:17:46.355Z,10.50
2023-01-06T16:22:51.258Z,10.50
2023-01-06T16:27:59.279Z,10.50
2023-01-06T16:33:01.052Z,10.42
2023-01-06T16:38:03.631Z,10.37
2023-01-06T16:43:05.301Z,10.38
2023-01-06T16:48:07.092Z,10.40
2023-01-06T16:53:15.329Z,10.33
2023-01-06T16:58:22.950Z,10.28
2023-01-06T17:03:28.689Z,10.30
2023-01-06T17:08:34.557Z,10.30
2023-01-06T17:13:36.633Z,10.21
2023-01-06T17:18:52.430Z,10.15
2023-01-06T17:24:25.539Z,10.06
2023-01-06T17:29:32.767Z,10.01
2023-01-06T17:34:36.952Z,10.00
2023-01-06T17:39:41.025Z,9.93
2023-01-06T17:44:48.765Z,9.98
2023-01-06T17:50:01.119Z,10.04
2023-01-06T17:55:27.450Z,10.01
2023-01-06T18:00:34.866Z,9.98
2023-01-06T18:05:36.550Z,9.99
2023-01-06T18:10:42.583Z,10.02
2023-01-06T18:15:46.590Z,10.07
2023-01-06T18:21:19.532Z,10.05
2023-01-06T18:26:24.019Z,9.99
2023-01-06T18:31:32.125Z,9.98
2023-01-06T18:36:33.889Z,9.87
2023-01-06T18:41:35.583Z,9.89
2023-01-06T18:46:40.388Z,9.86
2023-01-06T18:51:42.754Z,9.84
2023-01-06T18:56:44.549Z,9.92
2023-01-06T19:01:50.469Z,9.99
2023-01-06T19:06:57.966Z,10.01
2023-01-06T19:12:13.375Z,9.98
2023-01-06T19:17:33.156Z,9.92
2023-01-06T19:22:38.028Z,9.90
2023-01-06T19:28:02.494Z,9.95
2023-01-06T19:33:18.182Z,9.96
2023-01-06T19:38:25.527Z,9.92
2023-01-06T19:43:33.016Z,9.91
2023-01-06T19:48:41.248Z,9.94
2023-01-06T19:53:49.046Z,9.95
2023-01-06T19:58:58.516Z,9.94
2023-01-06T20:04:00.732Z,9.86
2023-01-06T20:09:02.476Z,9.73
2023-01-06T20:14:04.256Z,9.73
2023-01-06T20:19:05.949Z,9.79
2023-01-06T20:24:07.912Z,9.84
2023-01-06T20:29:09.964Z,9.83
2023-01-06T20:34:11.670Z,9.80
2023-01-06T20:39:15.109Z,9.76
2023-01-06T20:44:16.801Z,9.69
2023-01-06T20:49:20.494Z,9.70
2023-01-06T20:54:22.343Z,9.69
2023-01-06T20:59:24.378Z,9.70
2023-01-06T21:04:26.228Z,9.70
2023-01-06T21:09:29.235Z,9.73
2023-01-06T21:14:32.251Z,9.74
2023-01-06T21:19:34.684Z,9.74
2023-01-06T21:24:36.412Z,9.72
2023-01-06T21:29:38.174Z,9.76
2023-01-06T21:34:39.917Z,9.79
2023-01-06T21:39:41.843Z,9.72
2023-01-06T21:44:43.779Z,9.71
2023-01-06T21:49:45.988Z,9.66
2023-01-06T21:54:47.818Z,9.65
2023-01-06T21:59:49.691Z,9.58
2023-01-06T22:04:52.582Z,9.57
2023-01-06T22:09:55.465Z,9.63
2023-01-06T22:14:57.308Z,9.57
2023-01-06T22:19:59.304Z,9.58
2023-01-06T22:25:01.870Z,9.62
2023-01-06T22:30:04.930Z,9.54
2023-01-06T22:35:07.419Z,9.58
2023-01-06T22:40:11.025Z,9.54
2023-01-06T22:45:13.187Z,9.54
2023-01-06T22:50:15.202Z,9.61
2023-01-06T22:55:16.955Z,9.54
2023-01-06T23:00:19.065Z,9.51
2023-01-06T23:05:20.970Z,9.55
2023-01-06T23:10:22.857Z,9.63
2023-01-06T23:15:24.617Z,9.66
2023-01-06T23:20:26.334Z,9.63
2023-01-06T23:25:27.977Z,9.53
2023-01-06T23:30:29.635Z,9.43
2023-01-06T23:35:31.965Z,9.37
2023-01-06T23:40:33.725Z,9.37
2023-01-06T23:45:35.567Z,9.44
2023-01-06T23:50:37.370Z,9.53
2023-01-06T23:55:38.966Z,9.51
